Mr. Mag — WDE7813 — position and weather

sailwx.info

Track history (hours):
 
Tides and Currents Weather Stations Pressure Air Temp Water Temp Dewpoint Dewpoint Depression Visibility Wind Speed Wind Dir Waves Ship Positions

Mr. Mag

Owner: Tandi Marine, Inc., Larose, LA. More information available from US FCC via Universal Licensing System and Coast Guard Vessel Documentation Center.

Last reported at 2016-Sep-30 03:33 UTC. Time now 2016-Sep-30 11:51 UTC.
Position N 29°47' W 092°11'.

Length 46 m; draft 2.5 m.

Type: Passenger vessel. MMSI: 367397990.

Date/timePositionNaut miles runAvg speedWind from/ knotsBaromVisibWave heightAir tempDewpointWater temp
2016-Sep-30 03:33N 29°47' W 092°11'0 0.0
2016-Sep-30 02:33N 29°47' W 092°11'0 0.0
2016-Sep-29 23:33N 29°47' W 092°11'0 0.0
2016-Sep-29 21:33N 29°47' W 092°11'0 0.0
2016-Sep-29 20:33N 29°47' W 092°11'0 0.0
2016-Sep-29 19:33N 29°47' W 092°11'3 1.1
2016-Sep-29 16:34N 29°44' W 092°14'23 2.4
2016-Sep-29 07:12N 29°22' W 092°20'26 3.9
2016-Sep-29 00:34N 29°47' W 092°11'0 0.0
2016-Sep-28 21:34N 29°47' W 092°11'0 0.0
2016-Sep-28 19:33N 29°47' W 092°11'15 4.9
2016-Sep-28 16:34N 29°33' W 092°18'15 1.1
2016-Sep-28 03:33N 29°47' W 092°11'0 0.0
2016-Sep-28 02:33N 29°47' W 092°11'0 0.0
2016-Sep-28 01:33N 29°47' W 092°11'0 0.0
2016-Sep-27 23:33N 29°47' W 092°11'0 0.0
2016-Sep-27 19:33N 29°47' W 092°11'0 0.0
2016-Sep-27 00:33N 29°47' W 092°11'0 0.0
2016-Sep-26 20:33N 29°47' W 092°11'0 0.3
2016-Sep-26 19:33N 29°47' W 092°11'0 0.0
2016-Sep-26 02:33N 29°47' W 092°11'0 0.0
2016-Sep-26 01:34N 29°47' W 092°11'0 0.0
2016-Sep-26 00:33N 29°47' W 092°11'0 0.0
2016-Sep-25 21:34N 29°47' W 092°11'0 0.0
2016-Sep-25 04:33N 29°47' W 092°11'0 0.0
2016-Sep-25 00:33N 29°47' W 092°11'0 0.0
2016-Sep-24 22:33N 29°47' W 092°11'0 0.0
2016-Sep-24 21:33N 29°47' W 092°11'1 0.5
2016-Sep-24 19:33N 29°46' W 092°11'1 0.1
2016-Sep-24 03:33N 29°47' W 092°11'0 0.0
2016-Sep-24 02:34N 29°47' W 092°11'0 0.0
2016-Sep-24 01:34N 29°47' W 092°11'0 0.0
2016-Sep-24 00:33N 29°47' W 092°11'0 0.0
2016-Sep-23 19:34N 29°47' W 092°11'16 1.2
2016-Sep-23 06:33N 29°33' W 092°18'16 7.8
2016-Sep-23 04:33N 29°47' W 092°11'0 0.0
2016-Sep-23 03:34N 29°47' W 092°11'0 0.0
2016-Sep-23 02:33N 29°47' W 092°11'0 0.0
2016-Sep-23 01:33N 29°47' W 092°11'0 0.0
2016-Sep-23 00:33N 29°47' W 092°11'0 0.0
2016-Sep-22 23:33N 29°47' W 092°11'0 0.0
2016-Sep-22 20:33N 29°47' W 092°11'0 0.0
2016-Sep-22 04:33N 29°47' W 092°11'0 0.0
2016-Sep-22 03:33N 29°47' W 092°11'0 0.0
2016-Sep-22 00:33N 29°47' W 092°11'0 0.0
2016-Sep-21 23:33N 29°47' W 092°11'1211.7
2016-Sep-21 22:34N 29°36' W 092°17'12 0.6
2016-Sep-21 03:33N 29°47' W 092°11'0 0.0
2016-Sep-21 02:33N 29°47' W 092°11'0 0.0
2016-Sep-20 17:33N 29°47' W 092°11'26 2.5
2016-Sep-20 07:08N 29°21' W 092°20'1118.6
2016-Sep-20 06:32N 29°33' W 092°18'  
Track history (hours):
 
Tides and Currents Weather Stations Pressure Air Temp Water Temp Dewpoint Dewpoint Depression Visibility Wind Speed Wind Dir Waves Ship Positions

Mr. Mag

Owner: Tandi Marine, Inc., Larose, LA. More information available from US FCC via Universal Licensing System and Coast Guard Vessel Documentation Center.

Last reported at 2016-Sep-30 03:33 UTC. Time now 2016-Sep-30 11:51 UTC.
Position N 29°47' W 092°11'.

Length 46 m; draft 2.5 m.

Type: Passenger vessel. MMSI: 367397990.

Date/timePositionNaut miles runAvg speedWind from/ knotsBaromVisibWave heightAir tempDewpointWater temp
2016-Sep-30 03:33N 29°47' W 092°11'0 0.0
2016-Sep-30 02:33N 29°47' W 092°11'0 0.0
2016-Sep-29 23:33N 29°47' W 092°11'0 0.0
2016-Sep-29 21:33N 29°47' W 092°11'0 0.0
2016-Sep-29 20:33N 29°47' W 092°11'0 0.0
2016-Sep-29 19:33N 29°47' W 092°11'3 1.1
2016-Sep-29 16:34N 29°44' W 092°14'23 2.4
2016-Sep-29 07:12N 29°22' W 092°20'26 3.9
2016-Sep-29 00:34N 29°47' W 092°11'0 0.0
2016-Sep-28 21:34N 29°47' W 092°11'0 0.0
2016-Sep-28 19:33N 29°47' W 092°11'15 4.9
2016-Sep-28 16:34N 29°33' W 092°18'15 1.1
2016-Sep-28 03:33N 29°47' W 092°11'0 0.0
2016-Sep-28 02:33N 29°47' W 092°11'0 0.0
2016-Sep-28 01:33N 29°47' W 092°11'0 0.0
2016-Sep-27 23:33N 29°47' W 092°11'0 0.0
2016-Sep-27 19:33N 29°47' W 092°11'0 0.0
2016-Sep-27 00:33N 29°47' W 092°11'0 0.0
2016-Sep-26 20:33N 29°47' W 092°11'0 0.3
2016-Sep-26 19:33N 29°47' W 092°11'0 0.0
2016-Sep-26 02:33N 29°47' W 092°11'0 0.0
2016-Sep-26 01:34N 29°47' W 092°11'0 0.0
2016-Sep-26 00:33N 29°47' W 092°11'0 0.0
2016-Sep-25 21:34N 29°47' W 092°11'0 0.0
2016-Sep-25 04:33N 29°47' W 092°11'0 0.0
2016-Sep-25 00:33N 29°47' W 092°11'0 0.0
2016-Sep-24 22:33N 29°47' W 092°11'0 0.0
2016-Sep-24 21:33N 29°47' W 092°11'1 0.5
2016-Sep-24 19:33N 29°46' W 092°11'1 0.1
2016-Sep-24 03:33N 29°47' W 092°11'0 0.0
2016-Sep-24 02:34N 29°47' W 092°11'0 0.0
2016-Sep-24 01:34N 29°47' W 092°11'0 0.0
2016-Sep-24 00:33N 29°47' W 092°11'0 0.0
2016-Sep-23 19:34N 29°47' W 092°11'16 1.2
2016-Sep-23 06:33N 29°33' W 092°18'16 7.8
2016-Sep-23 04:33N 29°47' W 092°11'0 0.0
2016-Sep-23 03:34N 29°47' W 092°11'0 0.0
2016-Sep-23 02:33N 29°47' W 092°11'0 0.0
2016-Sep-23 01:33N 29°47' W 092°11'0 0.0
2016-Sep-23 00:33N 29°47' W 092°11'0 0.0
2016-Sep-22 23:33N 29°47' W 092°11'0 0.0
2016-Sep-22 20:33N 29°47' W 092°11'0 0.0
2016-Sep-22 04:33N 29°47' W 092°11'0 0.0
2016-Sep-22 03:33N 29°47' W 092°11'0 0.0
2016-Sep-22 00:33N 29°47' W 092°11'0 0.0
2016-Sep-21 23:33N 29°47' W 092°11'1211.7
2016-Sep-21 22:34N 29°36' W 092°17'12 0.6
2016-Sep-21 03:33N 29°47' W 092°11'0 0.0
2016-Sep-21 02:33N 29°47' W 092°11'0 0.0
2016-Sep-20 17:33N 29°47' W 092°11'26 2.5
2016-Sep-20 07:08N 29°21' W 092°20'1118.6
2016-Sep-20 06:32N 29°33' W 092°18'  

Dump ship's entire track history